createdAt,value
2022-11-21T00:00:01.765Z,18.83
2022-11-21T00:01:22.617Z,20.05
2022-11-21T00:02:24.244Z,18.52
2022-11-21T00:03:25.934Z,16.07
2022-11-21T00:04:27.773Z,18.17
2022-11-21T00:05:29.906Z,17.95
2022-11-21T00:06:31.459Z,18.23
2022-11-21T00:07:33.075Z,17.98
2022-11-21T00:08:34.698Z,18.88
2022-11-21T00:09:36.960Z,18.38
2022-11-21T00:10:38.885Z,18.42
2022-11-21T00:11:40.439Z,18.65
2022-11-21T00:12:41.995Z,18.48
2022-11-21T00:13:43.629Z,19.37
2022-11-21T00:14:45.225Z,18.85
2022-11-21T00:15:47.434Z,19.40
2022-11-21T00:16:52.134Z,19.50
2022-11-21T00:17:57.579Z,18.90
2022-11-21T00:18:59.122Z,20.00
2022-11-21T00:20:00.698Z,18.52
2022-11-21T00:21:06.485Z,20.27
2022-11-21T00:22:08.984Z,19.10
2022-11-21T00:23:11.015Z,19.67
2022-11-21T00:24:12.549Z,18.87
2022-11-21T00:25:14.217Z,18.52
2022-11-21T00:26:16.476Z,20.20
2022-11-21T00:27:18.022Z,18.60
2022-11-21T00:28:19.557Z,22.40
2022-11-21T00:29:22.110Z,19.42
2022-11-21T00:30:23.671Z,21.90
2022-11-21T00:31:26.156Z,22.73
2022-11-21T00:32:27.710Z,26.13
2022-11-21T00:33:29.269Z,24.60
2022-11-21T00:34:30.807Z,22.07
2022-11-21T00:35:32.843Z,21.10
2022-11-21T00:36:35.256Z,22.17
2022-11-21T00:37:36.849Z,22.17
2022-11-21T00:38:38.419Z,22.75
2022-11-21T00:39:39.966Z,21.92
2022-11-21T00:40:43.888Z,22.77
2022-11-21T00:41:46.145Z,21.88
2022-11-21T00:42:47.699Z,21.33
2022-11-21T00:43:49.352Z,22.35
2022-11-21T00:44:50.911Z,22.67
2022-11-21T00:45:52.451Z,20.77
2022-11-21T00:46:54.033Z,22.63
2022-11-21T00:47:55.638Z,22.35
2022-11-21T00:48:57.809Z,23.77
2022-11-21T00:49:59.381Z,20.02
2022-11-21T00:51:01.142Z,22.85
2022-11-21T00:52:02.784Z,20.60
2022-11-21T00:53:04.348Z,21.60
2022-11-21T00:54:07.197Z,22.25
2022-11-21T00:55:09.281Z,21.03
2022-11-21T00:56:10.940Z,20.73
2022-11-21T00:57:12.478Z,21.58
2022-11-21T00:58:14.034Z,19.80
2022-11-21T00:59:15.595Z,21.15
2022-11-21T01:00:17.845Z,21.98
2022-11-21T01:01:20.405Z,20.48
2022-11-21T01:02:22.035Z,21.42
2022-11-21T01:03:23.576Z,21.20
2022-11-21T01:04:25.342Z,21.90
2022-11-21T01:05:27.075Z,21.92
2022-11-21T01:06:29.709Z,22.13
2022-11-21T01:07:31.295Z,22.60
2022-11-21T01:08:34.884Z,21.17
2022-11-21T01:09:36.417Z,22.27
2022-11-21T01:10:37.980Z,22.33
2022-11-21T01:11:39.586Z,22.10
2022-11-21T01:12:41.163Z,23.00
2022-11-21T01:13:42.940Z,23.23
2022-11-21T01:14:44.529Z,22.42
2022-11-21T01:15:46.620Z,23.60
2022-11-21T01:16:48.167Z,22.48
2022-11-21T01:17:50.388Z,23.67
2022-11-21T01:18:52.084Z,22.55
2022-11-21T01:19:53.622Z,22.80
2022-11-21T01:20:55.163Z,21.35
2022-11-21T01:21:56.697Z,22.15
2022-11-21T01:22:58.338Z,22.77
2022-11-21T01:24:00.493Z,22.02
2022-11-21T01:25:02.035Z,21.10
2022-11-21T01:26:04.589Z,20.25
2022-11-21T01:27:06.139Z,22.00
2022-11-21T01:28:07.763Z,19.80
2022-11-21T01:29:09.389Z,21.17
2022-11-21T01:30:11.952Z,21.85
2022-11-21T01:31:18.359Z,21.35
2022-11-21T01:32:19.998Z,22.47
2022-11-21T01:33:21.646Z,22.05
2022-11-21T01:34:23.259Z,21.30
2022-11-21T01:35:25.902Z,23.27
2022-11-21T01:36:29.106Z,24.75
2022-11-21T01:37:30.707Z,22.30
2022-11-21T01:38:33.371Z,24.42
2022-11-21T01:39:35.003Z,25.58
2022-11-21T01:40:40.273Z,31.83
2022-11-21T01:41:43.557Z,39.80
2022-11-21T01:43:06.530Z,47.60
2022-11-21T01:44:25.096Z,39.47
2022-11-21T01:45:51.689Z,35.28
2022-11-21T01:46:53.475Z,29.90
2022-11-21T01:47:55.123Z,27.52
2022-11-21T01:49:03.514Z,26.30
2022-11-21T01:50:10.420Z,25.10
2022-11-21T01:51:19.529Z,22.88
2022-11-21T01:52:26.116Z,23.33
2022-11-21T01:53:27.707Z,25.17
2022-11-21T01:54:31.758Z,24.80
2022-11-21T01:55:33.389Z,25.73
2022-11-21T01:56:39.630Z,24.58
2022-11-21T01:57:42.633Z,21.75
2022-11-21T01:58:44.158Z,22.20
2022-11-21T02:00:02.368Z,21.77
2022-11-21T02:01:04.031Z,20.38
2022-11-21T02:02:07.343Z,18.77
2022-11-21T02:03:13.036Z,19.30
2022-11-21T02:04:14.913Z,20.20
2022-11-21T02:05:18.805Z,19.23
2022-11-21T02:06:20.392Z,20.55
2022-11-21T02:07:23.010Z,19.27
2022-11-21T02:08:24.655Z,19.10
2022-11-21T02:09:26.203Z,17.83
2022-11-21T02:10:27.818Z,18.77
2022-11-21T02:11:32.573Z,18.45
2022-11-21T02:12:40.651Z,19.00
2022-11-21T02:13:42.214Z,19.10
2022-11-21T02:14:43.880Z,19.10
2022-11-21T02:15:45.504Z,19.02
2022-11-21T02:16:47.078Z,17.60
2022-11-21T02:17:48.616Z,17.98
2022-11-21T02:18:50.157Z,17.50
2022-11-21T02:20:05.608Z,18.02
2022-11-21T02:21:22.662Z,16.23
2022-11-21T02:22:45.646Z,18.02
2022-11-21T02:24:21.889Z,17.33
2022-11-21T02:25:29.985Z,17.07
2022-11-21T02:26:31.549Z,16.85
2022-11-21T02:27:33.307Z,18.08
2022-11-21T02:28:34.940Z,17.02
2022-11-21T02:29:36.474Z,17.08
2022-11-21T02:30:39.316Z,17.92
2022-11-21T02:31:40.905Z,17.00
2022-11-21T02:32:47.081Z,18.48
2022-11-21T02:33:48.629Z,16.98
2022-11-21T02:34:50.260Z,17.80
2022-11-21T02:35:59.379Z,16.80
2022-11-21T02:37:01.750Z,16.75
2022-11-21T02:38:42.475Z,16.50
2022-11-21T02:39:44.019Z,15.18
2022-11-21T02:41:02.084Z,16.20
2022-11-21T02:42:32.726Z,18.27
2022-11-21T02:43:38.608Z,16.13
2022-11-21T02:45:02.056Z,15.13
2022-11-21T02:46:03.633Z,16.02
2022-11-21T02:47:05.169Z,16.50
2022-11-21T02:48:06.838Z,15.07
2022-11-21T02:49:08.411Z,17.27
2022-11-21T02:50:22.093Z,14.73
2022-11-21T02:51:23.713Z,15.60
2022-11-21T02:52:25.265Z,15.48
2022-11-21T02:53:26.822Z,16.25
2022-11-21T02:54:28.597Z,15.27
2022-11-21T02:55:30.382Z,16.40
2022-11-21T02:56:31.936Z,16.30
2022-11-21T02:57:33.849Z,16.40
2022-11-21T02:58:35.462Z,16.17
2022-11-21T02:59:36.992Z,16.48
2022-11-21T03:00:39.716Z,16.02
2022-11-21T03:01:41.339Z,17.08
2022-11-21T03:02:43.053Z,16.23
2022-11-21T03:03:44.613Z,16.73
2022-11-21T03:04:46.142Z,17.40
2022-11-21T03:05:48.376Z,15.63
2022-11-21T03:06:49.911Z,15.70
2022-11-21T03:07:51.510Z,16.88
2022-11-21T03:08:53.073Z,16.57
2022-11-21T03:09:54.675Z,15.93
2022-11-21T03:10:56.231Z,17.50
2022-11-21T03:11:57.766Z,19.30
2022-11-21T03:13:01.952Z,19.05
2022-11-21T03:14:03.548Z,17.25
2022-11-21T03:15:07.036Z,18.30
2022-11-21T03:16:08.577Z,19.27
2022-11-21T03:17:10.204Z,20.45
2022-11-21T03:18:11.798Z,19.98
2022-11-21T03:19:13.384Z,19.75
2022-11-21T03:20:15.077Z,19.85
2022-11-21T03:21:16.683Z,20.23
2022-11-21T03:22:18.235Z,20.23
2022-11-21T03:23:19.792Z,19.88
2022-11-21T03:24:21.386Z,18.38
2022-11-21T03:25:22.974Z,19.55
2022-11-21T03:26:24.557Z,19.23
2022-11-21T03:27:26.095Z,17.88
2022-11-21T03:28:27.740Z,18.38
2022-11-21T03:29:29.290Z,18.92
2022-11-21T03:30:30.862Z,18.00
2022-11-21T03:31:32.475Z,19.13
2022-11-21T03:32:34.030Z,19.17
2022-11-21T03:33:35.579Z,18.45
2022-11-21T03:34:37.131Z,17.10
2022-11-21T03:35:38.754Z,18.50
2022-11-21T03:36:40.383Z,18.98
2022-11-21T03:37:42.041Z,17.67
2022-11-21T03:38:43.707Z,17.77
2022-11-21T03:39:45.337Z,18.08
2022-11-21T03:40:46.983Z,15.75
2022-11-21T03:41:48.785Z,17.63
2022-11-21T03:42:50.303Z,17.75
2022-11-21T03:43:51.866Z,17.10
2022-11-21T03:44:53.400Z,16.00
2022-11-21T03:45:55.001Z,17.00
2022-11-21T03:46:56.566Z,16.40
2022-11-21T03:47:58.111Z,16.52
2022-11-21T03:48:59.738Z,17.23
2022-11-21T03:50:01.314Z,17.48
2022-11-21T03:51:03.058Z,19.45
2022-11-21T03:52:04.689Z,18.27
2022-11-21T03:53:06.236Z,17.77
2022-11-21T03:54:07.869Z,17.93
2022-11-21T03:55:09.611Z,17.83
2022-11-21T03:56:11.418Z,19.25
2022-11-21T03:57:12.981Z,20.48
2022-11-21T03:58:14.544Z,19.90
2022-11-21T03:59:16.111Z,20.92
2022-11-21T04:00:17.822Z,18.33
2022-11-21T04:01:19.641Z,18.10
2022-11-21T04:02:21.215Z,18.58
2022-11-21T04:03:22.776Z,17.33
2022-11-21T04:04:24.318Z,19.98
2022-11-21T04:05:25.849Z,17.85
2022-11-21T04:06:27.541Z,17.80
2022-11-21T04:07:30.160Z,18.15
2022-11-21T04:08:31.728Z,19.38
2022-11-21T04:09:33.594Z,19.70
2022-11-21T04:10:35.200Z,18.70
2022-11-21T04:11:36.750Z,19.40
2022-11-21T04:12:38.327Z,18.17
2022-11-21T04:13:39.903Z,18.08
2022-11-21T04:14:42.532Z,18.70
2022-11-21T04:15:44.571Z,21.05
2022-11-21T04:16:46.292Z,18.88
2022-11-21T04:17:47.874Z,19.20
2022-11-21T04:18:49.421Z,17.67
2022-11-21T04:19:51.944Z,19.42
2022-11-21T04:21:00.364Z,18.67
2022-11-21T04:22:01.966Z,18.75
2022-11-21T04:23:03.672Z,18.25
2022-11-21T04:24:05.648Z,20.10
2022-11-21T04:25:07.796Z,19.17
2022-11-21T04:26:09.382Z,19.77
2022-11-21T04:27:10.982Z,19.20
2022-11-21T04:28:12.612Z,19.35
2022-11-21T04:29:14.143Z,18.67
2022-11-21T04:30:15.850Z,18.67
2022-11-21T04:31:17.451Z,19.07
2022-11-21T04:32:19.043Z,19.65
2022-11-21T04:33:20.788Z,18.65
2022-11-21T04:34:22.620Z,19.27
2022-11-21T04:35:24.381Z,19.88
2022-11-21T04:36:25.998Z,18.95
2022-11-21T04:37:27.668Z,19.63
2022-11-21T04:38:29.273Z,18.85
2022-11-21T04:39:30.812Z,20.43
2022-11-21T04:40:32.440Z,18.05
2022-11-21T04:41:34.054Z,19.67
2022-11-21T04:42:35.599Z,17.90
2022-11-21T04:43:37.248Z,18.77
2022-11-21T04:44:38.806Z,19.05
2022-11-21T04:45:40.365Z,19.98
2022-11-21T04:46:41.927Z,18.15
2022-11-21T04:47:46.857Z,19.13
2022-11-21T04:48:48.454Z,19.07
2022-11-21T04:49:50.057Z,19.10
2022-11-21T04:50:51.632Z,19.33
2022-11-21T04:51:53.195Z,19.45
2022-11-21T04:52:55.936Z,19.13
2022-11-21T04:53:57.539Z,21.67
2022-11-21T04:54:59.081Z,19.15
2022-11-21T04:56:04.359Z,20.23
2022-11-21T04:57:05.892Z,21.23
2022-11-21T04:58:07.520Z,24.70
2022-11-21T04:59:12.026Z,23.70
2022-11-21T05:00:15.284Z,23.27
2022-11-21T05:01:19.136Z,24.35
2022-11-21T05:02:20.829Z,21.52
2022-11-21T05:03:22.400Z,19.63
2022-11-21T05:04:23.969Z,19.45
2022-11-21T05:05:25.551Z,18.57
2022-11-21T05:06:27.098Z,18.85
2022-11-21T05:07:28.682Z,18.13
2022-11-21T05:08:30.307Z,18.38
2022-11-21T05:09:31.883Z,17.50
2022-11-21T05:10:53.368Z,18.00
2022-11-21T05:12:13.316Z,16.67
2022-11-21T05:13:23.645Z,17.67
2022-11-21T05:14:26.710Z,16.00
2022-11-21T05:15:28.541Z,19.00
2022-11-21T05:16:30.124Z,16.63
2022-11-21T05:17:31.672Z,16.25
2022-11-21T05:18:33.330Z,17.10
2022-11-21T05:19:34.976Z,17.50
2022-11-21T05:20:37.078Z,17.15
2022-11-21T05:21:38.771Z,18.10
2022-11-21T05:22:40.351Z,17.52
2022-11-21T05:23:41.976Z,16.52
2022-11-21T05:24:43.560Z,17.80
2022-11-21T05:25:45.102Z,17.33
2022-11-21T05:26:46.710Z,17.02
2022-11-21T05:27:48.282Z,18.02
2022-11-21T05:28:49.853Z,18.17
2022-11-21T05:29:51.459Z,17.10
2022-11-21T05:30:53.064Z,16.17
2022-11-21T05:31:54.636Z,19.20
2022-11-21T05:32:56.172Z,19.77
2022-11-21T05:33:57.819Z,21.42
2022-11-21T05:34:59.379Z,19.08
2022-11-21T05:36:00.938Z,17.33
2022-11-21T05:37:02.492Z,15.90
2022-11-21T05:38:04.055Z,16.33
2022-11-21T05:39:05.752Z,16.83
2022-11-21T05:40:10.713Z,16.92
2022-11-21T05:41:12.538Z,18.97
2022-11-21T05:42:14.137Z,18.55
2022-11-21T05:43:34.018Z,20.13
2022-11-21T05:44:35.563Z,23.42
2022-11-21T05:45:37.137Z,24.30
2022-11-21T05:46:38.687Z,20.80
2022-11-21T05:47:41.837Z,21.48
2022-11-21T05:48:43.468Z,22.15
2022-11-21T05:49:45.019Z,22.40
2022-11-21T05:50:49.908Z,19.70
2022-11-21T05:51:51.478Z,20.00
2022-11-21T05:52:53.056Z,31.75
2022-11-21T05:53:54.752Z,66.32
2022-11-21T05:54:56.312Z,74.85
2022-11-21T05:56:08.046Z,68.23
2022-11-21T05:57:09.593Z,80.15
2022-11-21T05:58:11.372Z,80.18
2022-11-21T05:59:13.114Z,88.50
2022-11-21T06:00:15.366Z,82.88
2022-11-21T06:01:36.868Z,84.53
2022-11-21T06:02:56.965Z,76.00
2022-11-21T06:03:58.535Z,74.90
2022-11-21T06:05:00.139Z,81.15
2022-11-21T06:06:09.668Z,97.50
2022-11-21T06:07:11.390Z,104.37
2022-11-21T06:08:12.993Z,95.78
2022-11-21T06:09:14.593Z,62.45
2022-11-21T06:10:16.818Z,52.45
2022-11-21T06:11:18.361Z,47.13
2022-11-21T06:12:25.115Z,40.88
2022-11-21T06:13:27.168Z,39.38
2022-11-21T06:14:28.968Z,33.33
2022-11-21T06:15:30.723Z,27.58
2022-11-21T06:16:32.301Z,28.40
2022-11-21T06:17:33.846Z,29.88
2022-11-21T06:18:36.815Z,29.90
2022-11-21T06:19:38.355Z,28.27
2022-11-21T06:20:39.907Z,26.63
2022-11-21T06:21:41.499Z,25.52
2022-11-21T06:22:43.054Z,26.20
2022-11-21T06:23:44.812Z,24.02
2022-11-21T06:24:46.400Z,23.38
2022-11-21T06:25:47.961Z,23.60
2022-11-21T06:26:49.486Z,25.47
2022-11-21T06:27:51.103Z,24.13
2022-11-21T06:28:52.721Z,20.23
2022-11-21T06:29:54.278Z,21.58
2022-11-21T06:30:55.836Z,23.10
2022-11-21T06:31:57.429Z,20.25
2022-11-21T06:32:59.026Z,20.02
2022-11-21T06:34:00.673Z,19.50
2022-11-21T06:35:02.204Z,20.47
2022-11-21T06:36:04.731Z,20.70
2022-11-21T06:37:06.367Z,20.70
2022-11-21T06:38:07.934Z,19.63
2022-11-21T06:39:09.598Z,16.67
2022-11-21T06:40:12.019Z,19.15
2022-11-21T06:41:24.102Z,18.60
2022-11-21T06:42:25.657Z,16.55
2022-11-21T06:43:27.363Z,19.38
2022-11-21T06:44:29.183Z,18.35
2022-11-21T06:45:31.068Z,17.40
2022-11-21T06:46:32.654Z,16.65
2022-11-21T06:47:35.000Z,16.13
2022-11-21T06:48:37.372Z,18.10
2022-11-21T06:49:39.006Z,19.88
2022-11-21T06:50:40.611Z,17.65
2022-11-21T06:51:42.187Z,17.17
2022-11-21T06:52:43.743Z,18.02
2022-11-21T06:53:45.580Z,17.55
2022-11-21T06:54:47.218Z,14.95
2022-11-21T06:55:48.765Z,14.87
2022-11-21T06:56:52.166Z,16.65
2022-11-21T06:57:53.984Z,16.35
2022-11-21T06:58:55.860Z,14.90
2022-11-21T06:59:57.468Z,15.30
2022-11-21T07:01:03.551Z,15.75
2022-11-21T07:02:05.176Z,14.35
2022-11-21T07:03:06.749Z,15.95
2022-11-21T07:04:08.284Z,16.20
2022-11-21T07:05:09.980Z,16.40
2022-11-21T07:06:11.594Z,14.25
2022-11-21T07:07:13.243Z,15.05
2022-11-21T07:08:14.883Z,14.43
2022-11-21T07:09:33.799Z,17.52
2022-11-21T07:10:35.754Z,13.52
2022-11-21T07:11:37.415Z,14.88
2022-11-21T07:12:57.181Z,28.98
2022-11-21T07:13:58.740Z,30.27
2022-11-21T07:15:00.277Z,27.98
2022-11-21T07:16:09.176Z,15.33
2022-11-21T07:17:15.001Z,15.65
2022-11-21T07:18:16.550Z,13.60
2022-11-21T07:19:18.098Z,13.43
2022-11-21T07:20:19.681Z,17.63
2022-11-21T07:21:21.298Z,14.68
2022-11-21T07:22:22.916Z,13.57
2022-11-21T07:23:24.478Z,15.23
2022-11-21T07:24:26.012Z,17.73
2022-11-21T07:25:30.317Z,21.05
2022-11-21T07:26:35.463Z,19.60
2022-11-21T07:27:37.006Z,15.73
2022-11-21T07:28:38.586Z,15.57
2022-11-21T07:29:40.231Z,13.85
2022-11-21T07:30:41.787Z,13.57
2022-11-21T07:31:43.351Z,13.90
2022-11-21T07:32:44.922Z,17.77
2022-11-21T07:33:47.600Z,12.38
2022-11-21T07:34:49.262Z,15.00
2022-11-21T07:35:50.931Z,14.63
2022-11-21T07:36:52.497Z,16.27
2022-11-21T07:37:54.114Z,13.90
2022-11-21T07:38:55.652Z,13.13
2022-11-21T07:39:57.268Z,13.07
2022-11-21T07:40:59.095Z,14.18
2022-11-21T07:42:00.656Z,14.70
2022-11-21T07:43:07.957Z,14.50
2022-11-21T07:44:12.137Z,11.93
2022-11-21T07:45:14.363Z,12.93
2022-11-21T07:46:15.957Z,14.02
2022-11-21T07:47:17.542Z,13.63
2022-11-21T07:48:19.109Z,13.52
2022-11-21T07:49:20.661Z,14.25
2022-11-21T07:50:22.273Z,13.95
2022-11-21T07:51:23.895Z,14.15
2022-11-21T07:52:25.819Z,13.15
2022-11-21T07:53:27.438Z,14.73
2022-11-21T07:54:29.014Z,16.98
2022-11-21T07:55:30.655Z,15.27
2022-11-21T07:56:32.202Z,14.15
2022-11-21T07:57:33.892Z,14.00
2022-11-21T07:58:35.600Z,15.13
2022-11-21T07:59:37.345Z,14.50
2022-11-21T08:00:40.015Z,12.50
2022-11-21T08:01:45.421Z,11.90
2022-11-21T08:02:47.375Z,11.70
2022-11-21T08:03:48.924Z,11.30
2022-11-21T08:04:50.510Z,10.32
2022-11-21T08:05:52.061Z,10.77
2022-11-21T08:06:53.701Z,11.23
2022-11-21T08:07:55.272Z,10.50
2022-11-21T08:08:56.841Z,11.52
2022-11-21T08:09:58.459Z,11.15
2022-11-21T08:11:06.166Z,11.20
2022-11-21T08:12:08.242Z,10.98
2022-11-21T08:13:09.876Z,11.48
2022-11-21T08:14:11.477Z,11.57
2022-11-21T08:15:13.246Z,12.57
2022-11-21T08:16:14.775Z,12.57
2022-11-21T08:17:18.523Z,14.32
2022-11-21T08:18:20.465Z,13.03
2022-11-21T08:19:22.079Z,13.13
2022-11-21T08:20:23.628Z,13.70
2022-11-21T08:21:25.180Z,14.05
2022-11-21T08:22:27.038Z,15.13
2022-11-21T08:23:28.593Z,14.20
2022-11-21T08:24:30.208Z,13.85
2022-11-21T08:25:31.876Z,13.85
2022-11-21T08:26:33.433Z,16.10
2022-11-21T08:27:35.887Z,18.23
2022-11-21T08:28:37.462Z,13.93
2022-11-21T08:29:39.084Z,13.93
2022-11-21T08:30:40.716Z,14.68
2022-11-21T08:31:42.278Z,17.63
2022-11-21T08:32:43.813Z,19.52
2022-11-21T08:33:45.382Z,15.88
2022-11-21T08:34:46.987Z,17.08
2022-11-21T08:35:48.648Z,16.45
2022-11-21T08:36:50.196Z,17.27
2022-11-21T08:37:57.875Z,18.52
2022-11-21T08:38:59.564Z,18.20
2022-11-21T08:40:02.466Z,15.93
2022-11-21T08:41:22.855Z,15.15
2022-11-21T08:42:24.922Z,20.73
2022-11-21T08:43:26.544Z,16.55
2022-11-21T08:44:29.264Z,18.58
2022-11-21T08:45:31.273Z,17.73
2022-11-21T08:46:37.142Z,19.33
2022-11-21T08:47:38.687Z,23.08
2022-11-21T08:48:40.303Z,20.10
2022-11-21T08:49:41.951Z,15.67
2022-11-21T08:50:43.506Z,20.92
2022-11-21T08:51:49.315Z,22.35
2022-11-21T08:52:50.903Z,15.45
2022-11-21T08:53:52.467Z,13.07
2022-11-21T08:54:54.066Z,14.40
2022-11-21T08:55:57.986Z,12.98
2022-11-21T08:57:03.034Z,13.05
2022-11-21T08:58:04.637Z,14.32
2022-11-21T08:59:06.233Z,13.25
2022-11-21T09:00:09.437Z,12.57
2022-11-21T09:01:11.004Z,11.98
2022-11-21T09:02:12.905Z,12.50
2022-11-21T09:03:17.865Z,13.35
2022-11-21T09:04:23.408Z,15.48
2022-11-21T09:05:25.029Z,15.95
2022-11-21T09:06:26.628Z,14.63
2022-11-21T09:07:28.231Z,13.65
2022-11-21T09:08:30.423Z,12.77
2022-11-21T09:09:31.988Z,14.52
2022-11-21T09:10:33.621Z,13.40
2022-11-21T09:11:35.952Z,18.65
2022-11-21T09:12:37.559Z,16.98
2022-11-21T09:13:39.115Z,14.65
2022-11-21T09:14:59.012Z,13.90
2022-11-21T09:16:20.678Z,15.05
2022-11-21T09:17:40.962Z,16.75
2022-11-21T09:18:42.515Z,20.52
2022-11-21T09:19:44.092Z,16.90
2022-11-21T09:20:45.763Z,19.92
2022-11-21T09:21:56.250Z,21.30
2022-11-21T09:22:57.844Z,16.60
2022-11-21T09:23:59.950Z,15.73
2022-11-21T09:25:01.502Z,15.07
2022-11-21T09:26:03.202Z,18.67
2022-11-21T09:27:04.803Z,15.82
2022-11-21T09:28:07.578Z,15.15
2022-11-21T09:29:11.197Z,14.60
2022-11-21T09:30:12.964Z,14.48
2022-11-21T09:31:14.543Z,13.82
2022-11-21T09:32:16.100Z,14.83
2022-11-21T09:33:17.739Z,13.05
2022-11-21T09:34:20.327Z,14.15
2022-11-21T09:35:21.971Z,13.77
2022-11-21T09:36:23.756Z,14.38
2022-11-21T09:37:25.374Z,13.85
2022-11-21T09:38:27.504Z,15.40
2022-11-21T09:39:29.266Z,14.90
2022-11-21T09:40:31.426Z,14.90
2022-11-21T09:41:53.172Z,15.68
2022-11-21T09:43:03.761Z,14.30
2022-11-21T09:44:08.514Z,17.27
2022-11-21T09:45:11.440Z,16.00
2022-11-21T09:46:16.718Z,13.93
2022-11-21T09:47:29.081Z,16.55
2022-11-21T09:48:36.497Z,16.35
2022-11-21T09:49:41.639Z,24.42
2022-11-21T09:50:49.438Z,16.70
2022-11-21T09:51:55.067Z,17.30
2022-11-21T09:53:17.032Z,15.98
2022-11-21T09:54:27.387Z,16.23
2022-11-21T09:55:43.210Z,17.00
2022-11-21T09:56:44.876Z,20.45
2022-11-21T09:57:47.679Z,14.88
2022-11-21T09:59:19.129Z,19.20
2022-11-21T10:00:25.001Z,15.43
2022-11-21T10:01:28.655Z,18.23
2022-11-21T10:02:30.343Z,14.60
2022-11-21T10:03:33.587Z,15.45
2022-11-21T10:04:35.154Z,17.40
2022-11-21T10:05:41.712Z,15.40
2022-11-21T10:06:55.907Z,15.40
2022-11-21T10:07:58.265Z,14.48
2022-11-21T10:09:27.389Z,16.75
2022-11-21T10:10:55.045Z,15.30
2022-11-21T10:12:21.262Z,13.65
2022-11-21T10:13:33.084Z,15.35
2022-11-21T10:14:48.141Z,14.75
2022-11-21T10:16:09.255Z,14.57
2022-11-21T10:17:23.202Z,13.75
2022-11-21T10:18:33.791Z,16.27
2022-11-21T10:19:42.401Z,14.10
2022-11-21T10:20:49.675Z,16.38
2022-11-21T10:21:56.986Z,15.57
2022-11-21T10:23:16.551Z,17.75
2022-11-21T10:24:23.292Z,16.30
2022-11-21T10:25:27.513Z,14.57
2022-11-21T10:26:52.436Z,15.95
2022-11-21T10:27:59.544Z,17.08
2022-11-21T10:29:26.395Z,17.88
2022-11-21T10:30:29.790Z,12.57
2022-11-21T10:31:33.295Z,13.35
2022-11-21T10:32:39.373Z,13.32
2022-11-21T10:33:41.099Z,14.93
2022-11-21T10:34:42.673Z,13.57
2022-11-21T10:35:46.118Z,14.13
2022-11-21T10:36:59.160Z,13.38
2022-11-21T10:38:02.101Z,12.95
2022-11-21T10:39:10.453Z,13.57
2022-11-21T10:40:20.682Z,12.73
2022-11-21T10:41:29.933Z,12.53
2022-11-21T10:42:46.067Z,13.55
2022-11-21T10:44:15.302Z,12.35
2022-11-21T10:45:16.928Z,11.80
2022-11-21T10:46:18.489Z,11.93
2022-11-21T10:47:30.973Z,14.02
2022-11-21T10:48:32.516Z,12.88
2022-11-21T10:49:34.102Z,11.73
2022-11-21T10:50:41.976Z,11.50
2022-11-21T10:51:52.158Z,11.32
2022-11-21T10:53:28.533Z,12.43
2022-11-21T10:54:32.882Z,11.73
2022-11-21T10:55:34.482Z,12.15
2022-11-21T10:56:36.426Z,12.63
2022-11-21T10:57:51.096Z,13.38
2022-11-21T10:58:57.293Z,12.70
2022-11-21T11:00:23.191Z,14.50
2022-11-21T11:01:30.002Z,13.07
2022-11-21T11:02:31.687Z,14.00
2022-11-21T11:03:33.269Z,13.85
2022-11-21T11:04:45.637Z,29.40
2022-11-21T11:05:58.054Z,20.73
2022-11-21T11:07:00.679Z,18.77
2022-11-21T11:08:08.678Z,14.77
2022-11-21T11:09:34.850Z,15.30
2022-11-21T11:10:40.048Z,14.77
2022-11-21T11:11:41.597Z,19.65
2022-11-21T11:13:08.737Z,16.95
2022-11-21T11:14:31.181Z,22.30
2022-11-21T11:15:32.793Z,23.48
2022-11-21T11:16:41.247Z,27.90
2022-11-21T11:17:43.242Z,24.90
2022-11-21T11:18:57.062Z,19.73
2022-11-21T11:20:37.946Z,17.63
2022-11-21T11:21:42.100Z,12.40
2022-11-21T11:22:43.641Z,12.63
2022-11-21T11:23:47.043Z,13.23
2022-11-21T11:24:56.207Z,15.88
2022-11-21T11:26:00.846Z,14.43
2022-11-21T11:27:03.127Z,13.98
2022-11-21T11:28:07.635Z,13.93
2022-11-21T11:29:18.959Z,14.00
2022-11-21T11:30:20.544Z,12.68
2022-11-21T11:31:22.240Z,19.15
2022-11-21T11:32:23.936Z,17.67
2022-11-21T11:33:47.784Z,15.40
2022-11-21T11:34:55.018Z,13.65
2022-11-21T11:36:19.540Z,14.13
2022-11-21T11:37:41.044Z,13.50
2022-11-21T11:38:45.391Z,14.15
2022-11-21T11:40:08.305Z,13.00
2022-11-21T11:41:16.520Z,14.73
2022-11-21T11:42:52.975Z,16.40
2022-11-21T11:44:24.254Z,13.88
2022-11-21T11:46:12.327Z,15.30
2022-11-21T11:47:31.264Z,15.15
2022-11-21T11:48:50.375Z,15.20
2022-11-21T11:50:11.581Z,15.20
2022-11-21T11:51:24.771Z,16.23
2022-11-21T11:52:29.578Z,14.10
2022-11-21T11:53:38.439Z,14.63
2022-11-21T11:54:47.659Z,14.80
2022-11-21T11:55:54.758Z,15.82
2022-11-21T11:56:56.341Z,15.77
2022-11-21T11:57:59.312Z,15.25
2022-11-21T11:59:08.267Z,12.18
2022-11-21T12:00:42.268Z,11.15
2022-11-21T12:01:54.074Z,10.65
2022-11-21T12:03:11.002Z,10.85
2022-11-21T12:04:23.150Z,10.43
2022-11-21T12:05:28.481Z,9.40
2022-11-21T12:10:04.683Z,6.53
2022-11-21T12:12:00.318Z,6.90
2022-11-21T12:13:09.625Z,6.68
2022-11-21T12:15:25.372Z,6.70
2022-11-21T12:16:26.954Z,6.63
2022-11-21T12:17:35.675Z,6.32
2022-11-21T12:18:47.143Z,6.72
2022-11-21T12:19:48.794Z,6.70
2022-11-21T12:21:14.148Z,7.28
2022-11-21T12:22:15.764Z,7.43
2022-11-21T12:23:18.145Z,8.15
2022-11-21T12:24:22.343Z,7.07
2022-11-21T12:25:27.368Z,7.85
2022-11-21T12:26:34.612Z,7.95
2022-11-21T12:27:36.146Z,7.82
2022-11-21T12:29:15.215Z,8.52
2022-11-21T12:30:37.970Z,7.65
2022-11-21T12:31:42.078Z,7.07
2022-11-21T12:33:11.079Z,8.60
2022-11-21T12:34:24.768Z,8.02
2022-11-21T12:35:30.076Z,8.13
2022-11-21T12:36:35.905Z,8.27
2022-11-21T12:38:04.904Z,10.10
2022-11-21T12:39:40.904Z,7.78
2022-11-21T12:40:45.251Z,7.10
2022-11-21T12:42:30.837Z,7.50
2022-11-21T12:43:47.324Z,6.95
2022-11-21T12:45:17.998Z,7.50
2022-11-21T12:46:24.234Z,7.65
2022-11-21T12:47:31.281Z,7.65
2022-11-21T12:48:57.503Z,7.63
2022-11-21T12:50:35.168Z,8.05
2022-11-21T12:51:58.284Z,8.13
2022-11-21T12:53:24.012Z,7.97
2022-11-21T12:54:47.294Z,7.88
2022-11-21T12:55:49.217Z,8.02
2022-11-21T12:57:03.967Z,7.78
2022-11-21T12:58:13.985Z,8.80
2022-11-21T12:59:16.164Z,8.27
2022-11-21T13:00:25.515Z,7.90
2022-11-21T13:01:36.210Z,7.97
2022-11-21T13:02:43.508Z,7.63
2022-11-21T13:04:18.243Z,8.20
2022-11-21T13:05:28.072Z,7.95
2022-11-21T13:06:38.540Z,7.20
2022-11-21T13:07:40.169Z,7.55
2022-11-21T13:08:41.773Z,8.13
2022-11-21T13:09:45.854Z,8.17
2022-11-21T13:11:19.016Z,8.40
2022-11-21T13:12:42.127Z,7.68
2022-11-21T13:13:43.749Z,8.77
2022-11-21T13:14:55.837Z,10.75
2022-11-21T13:16:11.628Z,7.40
2022-11-21T13:17:15.277Z,7.10
2022-11-21T13:18:45.180Z,7.22
2022-11-21T13:19:56.393Z,7.35
2022-11-21T13:20:59.105Z,7.22
2022-11-21T13:22:00.850Z,7.27
2022-11-21T13:23:06.589Z,7.03
2022-11-21T13:24:08.791Z,6.30
2022-11-21T13:25:38.522Z,7.05
2022-11-21T13:26:43.083Z,8.40
2022-11-21T13:27:47.265Z,6.28
2022-11-21T13:28:49.636Z,7.05
2022-11-21T13:30:10.517Z,6.75
2022-11-21T13:31:33.273Z,6.70
2022-11-21T13:32:45.512Z,7.07
2022-11-21T13:33:48.222Z,7.20
2022-11-21T13:34:49.995Z,6.82
2022-11-21T13:35:51.567Z,7.05
2022-11-21T13:36:53.096Z,7.15
2022-11-21T13:38:08.249Z,6.55
2022-11-21T13:39:15.893Z,6.80
2022-11-21T13:40:26.772Z,7.40
2022-11-21T13:41:53.236Z,7.63
2022-11-21T13:43:33.389Z,7.57
2022-11-21T13:44:35.933Z,7.00
2022-11-21T13:45:38.856Z,7.53
2022-11-21T13:47:10.511Z,7.32
2022-11-21T13:48:34.693Z,7.88
2022-11-21T13:49:57.641Z,7.32
2022-11-21T13:51:27.144Z,7.28
2022-11-21T13:52:34.110Z,7.63
2022-11-21T13:53:39.786Z,7.47
2022-11-21T13:55:18.177Z,7.63
2022-11-21T13:56:44.554Z,7.32
2022-11-21T13:58:11.163Z,8.55
2022-11-21T13:59:43.760Z,7.17
2022-11-21T14:01:04.022Z,9.00
2022-11-21T14:02:33.346Z,7.95
2022-11-21T14:03:55.757Z,9.73
2022-11-21T14:05:00.426Z,6.90
2022-11-21T14:06:16.883Z,7.65
2022-11-21T14:07:21.951Z,8.25
2022-11-21T14:08:24.995Z,7.88
2022-11-21T14:09:28.229Z,6.68
2022-11-21T14:10:35.870Z,7.80
2022-11-21T14:11:41.398Z,7.23
2022-11-21T14:12:44.871Z,7.88
2022-11-21T14:13:47.087Z,9.27
2022-11-21T14:14:59.921Z,7.72